Flight Track Log - Related Links

Times and Time Zones

All times are in EDT time to prevent confusion due to time zone crossing. See the JIA2416 flight status page for this flight to view local times or setup timezone preferences in your user account.

Time Position Orientation Groundspeed Altitude Reporting Facility
EDT Latitude Longitude Course Direction KTS MPH feet Rate Location/Type
Mon 06:47:03 PM 35.2347 -80.9392 North 155 178 2,000  Level Atlanta Center
Mon 06:48:04 PM 35.2903 -80.9092 24° Northeast 238 274 4,300 2,071 Climbing Atlanta Center
Mon 06:48:56 PM 35.2986 -80.8272 83° East 274 315 5,900 1,970 Climbing Atlanta Center
Mon 06:49:11 PM 35.3025 -80.8144 70° East 296 341 6,500 2,400 Climbing Atlanta Center
Mon 06:49:56 PM 35.3086 -80.7353 85° East 310 357 8,300 2,400 Climbing Atlanta Center
Mon 06:50:56 PM 35.3142 -80.6308 86° East 316 364 10,700 2,200 Climbing Atlanta Center
Mon 06:51:00 PM 35.2535 -80.5285 30° Northeast  Level FlightAware Approximate
Mon 06:51:56 PM 35.3236 -80.5233 84° East 316 364 12,700  Level Atlanta Center
Mon 06:52:00 PM 35.3284 -80.4667 North  Level FlightAware Approximate
Mon 06:52:56 PM 35.3497 -80.4153 73° East 316 364 14,700  Level Atlanta Center
Mon 06:53:56 PM 35.3839 -80.3044 69° East 334 384 16,300 1,400 Climbing Atlanta Center
Mon 06:54:56 PM 35.4164 -80.2033 68° East 339 390 17,500 1,327 Climbing Atlanta Center
Mon 06:55:40 PM 35.4431 -80.0994 72° East 346 398 18,600 1,429 Climbing Washington Center
Mon 06:56:41 PM 35.4767 -79.9842 70° East 367 422 20,000 1,190 Climbing Washington Center
Mon 06:57:41 PM 35.5061 -79.8608 74° East 367 422 21,000 496 Climbing Washington Center
Mon 06:58:42 PM 35.5378 -79.7347 73° East 378 435 21,000  Level Washington Center
Mon 06:59:40 PM 35.5692 -79.6036 74° East 383 441 21,000  Level Washington Center
Mon 07:00:40 PM 35.6069 -79.4700 71° East 402 463 21,000  Level Washington Center
Mon 07:01:41 PM 35.6156 -79.3350 85° East 402 463 21,000  Level Washington Center
Mon 07:02:42 PM 35.6175 -79.1997 89° East 397 457 21,000  Level Washington Center
Mon 07:03:42 PM 35.6194 -79.0644 89° East 392 451 21,000  Level Washington Center
Mon 07:04:41 PM 35.6214 -78.9267 89° East 397 457 21,000 -353 Level Washington Center
Mon 07:05:41 PM 35.6250 -78.7914 88° East 397 457 20,300 -1,091 Descending Washington Center
Mon 07:06:42 PM 35.6286 -78.6533 88° East 403 464 18,800 -1,537 Descending Washington Center
Mon 07:07:42 PM 35.6300 -78.5156 89° East 403 464 17,200 -1,550 Descending Washington Center
Mon 07:08:42 PM 35.6311 -78.3828 89° East 397 457 15,700 -1,373 Descending Washington Center
Mon 07:09:40 PM 35.6317 -78.2703 90° East 383 441 14,500 -1,412 Descending Washington Center
Mon 07:10:41 PM 35.6303 -78.1450 91° East 371 427 12,900 -1,475 Descending Washington Center
Mon 07:11:42 PM 35.6325 -78.0300 89° East 355 409 11,500 -1,488 Descending Washington Center
Mon 07:12:42 PM 35.6325 -77.9278 90° East 324 373 9,900 -1,678 Descending Washington Center
Mon 07:13:40 PM 35.6344 -77.8308 89° East 299 344 8,200 -1,831 Descending Washington Center
Mon 07:14:40 PM 35.6342 -77.7336 90° East 287 330 6,300 -1,918 Descending Washington Center
Mon 07:15:42 PM 35.6358 -77.6392 89° East 282 325 4,300 -1,934 Descending Washington Center
Mon 07:16:41 PM 35.6353 -77.5419 90° East 277 319 2,400 -1,932 Descending Washington Center

Login

Don't have an account? Register now (free) for customized features, flight alerts, and more!